Time,TemperatureF,DewpointF,PressureIn,WindDirection,WindDirectionDegrees,WindSpeedMPH,WindSpeedGustMPH,Humidity,HourlyPrecipIn,Conditions,Clouds,dailyrainin,SoftwareType,DateUTC
2013-07-09 00:00:00,54.0,41.0,-100.00,North,-999,-999.0,-999.0,60,-99.99,,,0.00,,2013-07-09 07:00:00,
2013-07-09 01:00:00,55.0,38.0,-100.00,NW,318,1.0,2.0,54,-99.99,,,0.00,,2013-07-09 08:00:00,
2013-07-09 02:00:00,54.0,37.0,-100.00,NW,311,1.0,2.0,52,-99.99,,,-99.99,,2013-07-09 09:00:00,
2013-07-09 02:53:00,54.0,37.0,-100.00,NW,311,1.0,2.0,52,-99.99,,,-99.99,,2013-07-09 09:53:00,
2013-07-09 03:00:00,53.0,39.0,-100.00,West,279,0.0,1.0,58,-99.99,,,-99.99,,2013-07-09 10:00:00,
2013-07-09 04:00:00,53.0,39.0,-100.00,WNW,299,1.0,1.0,58,-99.99,,,-99.99,,2013-07-09 11:00:00,
2013-07-09 04:53:00,53.0,39.0,-100.00,WNW,299,1.0,1.0,58,-99.99,,,-99.99,,2013-07-09 11:53:00,
2013-07-09 05:00:00,54.0,38.0,-100.00,WNW,302,1.0,1.0,54,-99.99,,,0.00,,2013-07-09 12:00:00,
2013-07-09 05:52:00,54.0,38.0,-100.00,WNW,302,1.0,1.0,54,-99.99,,,0.00,,2013-07-09 12:52:00,
2013-07-09 06:00:00,55.0,39.0,-100.00,NW,318,1.0,2.0,56,-99.99,,,0.00,,2013-07-09 13:00:00,
2013-07-09 06:53:00,55.0,39.0,-100.00,NW,318,1.0,2.0,56,-99.99,,,0.00,,2013-07-09 13:53:00,
2013-07-09 07:00:00,60.0,43.0,-100.00,NNE,28,0.0,1.0,53,-99.99,,,0.00,,2013-07-09 14:00:00,
2013-07-09 08:00:00,65.0,43.0,-100.00,North,-999,-999.0,-999.0,45,-99.99,,,0.00,,2013-07-09 15:00:00,
2013-07-09 10:00:00,68.0,42.0,-100.00,SSE,161,2.0,5.0,39,-99.99,,,0.00,,2013-07-09 17:00:00,
2013-07-09 11:00:00,70.0,41.0,-100.00,SSE,155,2.0,5.0,34,-99.99,,,0.00,,2013-07-09 18:00:00,
2013-07-09 12:00:00,71.0,39.0,-100.00,SE,131,3.0,6.0,31,-99.99,,,0.00,,2013-07-09 19:00:00,
2013-07-09 13:00:00,67.0,34.0,-100.00,SE,146,3.0,7.0,29,-99.99,,,0.00,,2013-07-09 20:00:00,
2013-07-09 14:00:00,71.0,35.0,-100.00,SSW,205,3.0,7.0,26,-99.99,,,0.00,,2013-07-09 21:00:00,
2013-07-09 14:52:00,71.0,35.0,-100.00,SSW,205,3.0,7.0,26,-99.99,,,0.00,,2013-07-09 21:52:00,
2013-07-09 15:00:00,70.0,33.0,-100.00,North,-999,-999.0,-999.0,25,-99.99,,,0.00,,2013-07-09 22:00:00,
2013-07-09 15:53:00,70.0,33.0,-100.00,North,-999,-999.0,-999.0,25,-99.99,,,0.00,,2013-07-09 22:53:00,
2013-07-09 16:00:00,73.0,35.0,-100.00,South,170,2.0,4.0,25,-99.99,,,0.00,,2013-07-09 23:00:00,
2013-07-09 16:53:00,73.0,35.0,-100.00,South,170,2.0,4.0,25,-99.99,,,0.00,,2013-07-09 23:53:00,
2013-07-09 17:00:00,73.0,36.0,-100.00,NE,36,3.0,5.0,26,-99.99,,,0.00,,2013-07-10 00:00:00,
2013-07-09 18:00:00,71.0,37.0,-100.00,NE,43,3.0,4.0,29,-99.99,,,-99.99,,2013-07-10 01:00:00,
2013-07-09 18:53:00,71.0,37.0,-100.00,NE,43,3.0,4.0,29,-99.99,,,-99.99,,2013-07-10 01:53:00,
2013-07-09 19:00:00,71.0,39.0,-100.00,SSE,153,3.0,5.0,31,-99.99,,,-99.99,,2013-07-10 02:00:00,
2013-07-09 20:00:00,68.0,36.0,-100.00,SW,218,2.0,5.0,31,-99.99,,,0.00,,2013-07-10 03:00:00,
2013-07-09 20:52:00,68.0,36.0,-100.00,SW,218,2.0,5.0,31,-99.99,,,0.00,,2013-07-10 03:52:00,
2013-07-09 21:00:00,63.0,42.0,-100.00,WNW,298,1.0,3.0,45,-99.99,,,0.00,,2013-07-10 04:00:00,
2013-07-09 22:00:00,60.0,44.0,-100.00,WNW,297,1.0,2.0,55,-99.99,,,-99.99,,2013-07-10 05:00:00,
2013-07-09 22:42:00,60.0,44.0,-100.00,WNW,297,1.0,2.0,55,-99.99,,,-99.99,,2013-07-10 05:42:00,
2013-07-09 22:53:00,60.0,44.0,-100.00,WNW,297,1.0,2.0,55,-99.99,,,-99.99,,2013-07-10 05:53:00,
2013-07-09 23:00:00,58.0,43.0,-100.00,NW,308,1.0,1.0,57,-99.99,,,0.00,,2013-07-10 06:00:00,
2013-07-09 23:52:00,58.0,43.0,-100.00,NW,308,1.0,1.0,57,-99.99,,,0.00,,2013-07-10 06:52:00,